Time;durP1;ratioP1;P1;durP2;ratioP2;P2;SDS_P1;SDS_P2;PMS_P1;PMS_P2;Temp;Humidity;BMP_temperature;BMP_pressure;BME280_temperature;BME280_humidity;BME280_pressure;Samples;Min_cycle;Max_cycle;Signal;HPM_P1;HPM_P2
2022/02/19 00:00:16;;;;;;;0.80;0.80;;;7.00;99.90;;;;;;5034027;28;20104;-73
2022/02/19 00:02:42;;;;;;;4.70;2.92;;;6.90;99.90;;;;;;5033625;28;20025;-73
2022/02/19 00:05:08;;;;;;;2.75;1.75;;;7.00;99.90;;;;;;5033943;28;20121;-74
2022/02/19 00:07:35;;;;;;;5.82;0.73;;;7.00;99.90;;;;;;5033698;28;20029;-73
2022/02/19 00:10:01;;;;;;;3.30;1.25;;;7.00;99.90;;;;;;5033627;28;20021;-74
2022/02/19 00:12:27;;;;;;;0.10;0.10;;;7.00;99.90;;;;;;5033600;28;20096;-73
2022/02/19 00:14:53;;;;;;;0.00;0.00;;;7.00;99.90;;;;;;5033806;28;20152;-73
2022/02/19 00:17:20;;;;;;;3.42;1.98;;;7.00;99.90;;;;;;5033386;28;20392;-73
2022/02/19 00:19:46;;;;;;;0.73;0.73;;;7.00;99.90;;;;;;5032998;28;20037;-73
2022/02/19 00:22:11;;;;;;;42.00;2.08;;;7.00;99.90;;;;;;5033720;28;20036;-73
2022/02/19 00:24:37;;;;;;;3.50;1.35;;;7.00;99.90;;;;;;5033314;28;20071;-74
2022/02/19 00:27:03;;;;;;;5.82;2.15;;;7.10;99.90;;;;;;5032493;28;20436;-73
2022/02/19 00:29:29;;;;;;;0.13;0.13;;;7.10;99.90;;;;;;5034118;28;20164;-73
2022/02/19 00:31:54;;;;;;;0.00;0.00;;;7.10;99.90;;;;;;5033474;28;20494;-73
2022/02/19 00:34:20;;;;;;;0.00;0.00;;;7.20;99.90;;;;;;5020489;28;20024;-73
2022/02/19 00:36:45;;;;;;;0.90;0.60;;;7.10;99.90;;;;;;5019224;28;20021;-73
2022/02/19 00:39:12;;;;;;;0.30;0.30;;;7.10;99.90;;;;;;5032436;28;20028;-74
2022/02/19 00:41:38;;;;;;;0.05;0.05;;;7.00;99.90;;;;;;5033238;28;20075;-74
2022/02/19 00:44:07;;;;;;;1.42;1.33;;;7.00;99.90;;;;;;5032980;28;20128;-74
2022/02/19 00:46:37;;;;;;;33.88;1.08;;;6.90;99.90;;;;;;5033311;28;20025;-73
2022/02/19 00:49:03;;;;;;;0.57;0.32;;;6.90;99.90;;;;;;5032400;28;20025;-74
2022/02/19 00:51:31;;;;;;;1.83;0.82;;;6.90;99.90;;;;;;5032290;28;20076;-73
2022/02/19 00:53:57;;;;;;;0.00;0.00;;;6.80;99.90;;;;;;5031248;28;20381;-74
2022/02/19 00:56:23;;;;;;;1.77;0.75;;;6.80;99.90;;;;;;5033127;28;20021;-73
2022/02/19 00:58:49;;;;;;;0.43;0.43;;;6.70;99.90;;;;;;5032670;28;20493;-74
2022/02/19 01:01:14;;;;;;;2.63;1.65;;;6.60;99.90;;;;;;5032909;28;20032;-74
2022/02/19 01:03:40;;;;;;;0.10;0.10;;;6.50;99.90;;;;;;5032851;28;20057;-73
2022/02/19 01:06:06;;;;;;;0.00;0.00;;;6.50;99.90;;;;;;5031846;28;20025;-73
2022/02/19 01:08:34;;;;;;;0.10;0.10;;;6.40;99.90;;;;;;5032596;28;20059;-73
2022/02/19 01:11:00;;;;;;;0.00;0.00;;;6.40;99.90;;;;;;5032800;28;20033;-73
2022/02/19 01:13:25;;;;;;;0.13;0.13;;;6.30;99.90;;;;;;5032399;28;20404;-72
2022/02/19 01:15:51;;;;;;;0.00;0.00;;;6.30;99.90;;;;;;5031992;28;20426;-73
2022/02/19 01:18:17;;;;;;;0.38;0.38;;;6.20;99.90;;;;;;5032535;28;20036;-73
2022/02/19 01:20:45;;;;;;;0.10;0.10;;;6.10;99.90;;;;;;5033054;28;20029;-73
2022/02/19 01:23:11;;;;;;;0.75;0.75;;;6.10;99.90;;;;;;5032805;28;20438;-73
2022/02/19 01:25:37;;;;;;;0.73;0.35;;;6.00;99.90;;;;;;5032711;28;20038;-73
2022/02/19 01:28:04;;;;;;;1.00;0.63;;;6.00;99.90;;;;;;5032787;28;20036;-73
2022/02/19 01:30:29;;;;;;;0.17;0.17;;;5.90;99.90;;;;;;5032228;28;20017;-73
2022/02/19 01:32:55;;;;;;;0.00;0.00;;;5.90;99.90;;;;;;5031498;28;20101;-74
2022/02/19 01:35:21;;;;;;;0.30;0.30;;;5.80;99.90;;;;;;5013133;28;20086;-73
2022/02/19 01:37:46;;;;;;;0.17;0.17;;;5.80;99.90;;;;;;5026423;28;20036;-74
2022/02/19 01:40:12;;;;;;;0.52;0.52;;;5.80;99.90;;;;;;5032233;28;20476;-73
2022/02/19 01:42:41;;;;;;;0.15;0.15;;;5.80;99.90;;;;;;5032527;28;20025;-73
2022/02/19 01:45:07;;;;;;;0.00;0.00;;;5.70;99.90;;;;;;5032595;28;20035;-73
2022/02/19 01:47:39;;;;;;;17.63;0.68;;;5.70;99.90;;;;;;5031025;28;20021;-73
2022/02/19 01:50:06;;;;;;;0.00;0.00;;;5.70;99.90;;;;;;5032097;28;20033;-73
2022/02/19 01:52:32;;;;;;;0.00;0.00;;;5.70;99.90;;;;;;5032603;28;20447;-73
2022/02/19 01:54:58;;;;;;;0.10;0.10;;;5.90;99.90;;;;;;5032035;28;20029;-73
2022/02/19 01:57:27;;;;;;;1.27;1.17;;;6.10;99.90;;;;;;5032627;28;20415;-74
2022/02/19 01:59:52;;;;;;;0.30;0.30;;;6.20;99.90;;;;;;5032434;28;20048;-73
2022/02/19 02:02:18;;;;;;;0.08;0.08;;;6.20;99.90;;;;;;5032391;28;20029;-73
2022/02/19 02:04:44;;;;;;;2.25;0.98;;;6.20;99.90;;;;;;5033873;28;20112;-73
2022/02/19 02:07:10;;;;;;;0.00;0.00;;;6.20;99.90;;;;;;5034990;28;20492;-73
2022/02/19 02:09:37;;;;;;;0.32;0.32;;;6.30;99.90;;;;;;5035406;28;20025;-73
2022/02/19 02:12:04;;;;;;;0.80;0.55;;;6.50;99.90;;;;;;5036071;28;20378;-74
2022/02/19 02:14:30;;;;;;;0.00;0.00;;;6.60;99.90;;;;;;5035984;28;20021;-74
2022/02/19 02:16:56;;;;;;;1.55;0.35;;;6.70;99.90;;;;;;5035797;28;20033;-73
2022/02/19 02:19:21;;;;;;;0.00;0.00;;;6.80;99.90;;;;;;5035659;28;20052;-73
2022/02/19 02:21:47;;;;;;;0.20;0.20;;;6.80;99.90;;;;;;5034729;28;20033;-73
2022/02/19 02:24:13;;;;;;;0.00;0.00;;;6.80;99.90;;;;;;5035712;28;20076;-73
2022/02/19 02:26:42;;;;;;;0.00;0.00;;;6.70;99.90;;;;;;5036238;28;20051;-74
2022/02/19 02:29:08;;;;;;;2.75;1.10;;;6.60;99.90;;;;;;5035398;28;20116;-74
2022/02/19 02:31:34;;;;;;;0.08;0.08;;;6.50;99.90;;;;;;5035717;28;20104;-73
2022/02/19 02:33:59;;;;;;;0.10;0.10;;;6.50;99.90;;;;;;5035640;28;20018;-73
2022/02/19 02:36:25;;;;;;;0.85;0.80;;;6.50;99.90;;;;;;5035473;28;20048;-74
2022/02/19 02:38:54;;;;;;;4.38;1.20;;;6.40;99.90;;;;;;5034144;28;20400;-73
2022/02/19 02:41:21;;;;;;;6.82;1.65;;;6.30;99.90;;;;;;5035132;28;20029;-73
2022/02/19 02:43:46;;;;;;;1.95;1.55;;;6.20;99.90;;;;;;5035229;28;20045;-73
2022/02/19 02:46:12;;;;;;;0.00;0.00;;;6.10;99.90;;;;;;5035538;28;20033;-74
2022/02/19 02:48:38;;;;;;;0.45;0.40;;;6.00;99.90;;;;;;5035019;28;20527;-74
2022/02/19 02:51:05;;;;;;;0.00;0.00;;;5.90;99.90;;;;;;5035699;28;20038;-73
2022/02/19 02:53:31;;;;;;;0.00;0.00;;;5.80;99.90;;;;;;5035248;28;20045;-74
2022/02/19 02:55:56;;;;;;;0.32;0.32;;;5.80;99.90;;;;;;5035050;28;20502;-73
2022/02/19 02:58:22;;;;;;;0.38;0.38;;;5.80;99.90;;;;;;5035245;28;20108;-73
2022/02/19 03:00:48;;;;;;;0.10;0.10;;;5.70;99.90;;;;;;5035282;28;20033;-73
2022/02/19 03:03:14;;;;;;;5.53;1.67;;;5.60;99.90;;;;;;5035069;28;20512;-73
2022/02/19 03:05:41;;;;;;;1.85;0.47;;;5.60;99.90;;;;;;5035039;28;20657;-73
2022/02/19 03:08:07;;;;;;;0.00;0.00;;;5.70;99.90;;;;;;5034315;28;20071;-74
2022/02/19 03:10:33;;;;;;;3.13;1.45;;;5.70;99.90;;;;;;5034649;28;20095;-73
2022/02/19 03:12:59;;;;;;;1.55;0.47;;;5.80;99.90;;;;;;5034941;28;20492;-73
2022/02/19 03:15:25;;;;;;;0.00;0.00;;;5.90;99.90;;;;;;5033548;28;20044;-73
2022/02/19 03:17:50;;;;;;;1.65;1.05;;;5.90;99.90;;;;;;5034427;28;20052;-74
2022/02/19 03:20:18;;;;;;;5.07;1.33;;;5.90;99.90;;;;;;5034803;28;20021;-73
2022/02/19 03:22:45;;;;;;;1.15;0.63;;;5.90;99.90;;;;;;5034753;28;20024;-74
2022/02/19 03:25:12;;;;;;;0.00;0.00;;;5.90;99.90;;;;;;5034615;28;20034;-74
2022/02/19 03:27:38;;;;;;;0.20;0.20;;;5.80;99.90;;;;;;5034587;28;20018;-74
2022/02/19 03:30:06;;;;;;;5.63;1.30;;;5.70;99.90;;;;;;5034606;28;20076;-73
2022/02/19 03:32:32;;;;;;;0.00;0.00;;;5.60;99.90;;;;;;5034334;28;20411;-73
2022/02/19 03:34:58;;;;;;;0.00;0.00;;;5.60;99.90;;;;;;5034278;28;20033;-74
2022/02/19 03:37:24;;;;;;;0.25;0.25;;;5.60;99.90;;;;;;5034252;28;20519;-73
2022/02/19 03:39:50;;;;;;;5.07;1.30;;;5.50;99.90;;;;;;5033881;28;20038;-73
2022/02/19 03:42:15;;;;;;;5.00;2.47;;;5.60;99.90;;;;;;5033893;28;20021;-73
2022/02/19 03:44:42;;;;;;;4.85;1.98;;;5.60;99.90;;;;;;5034072;28;20060;-74
2022/02/19 03:47:08;;;;;;;0.00;0.00;;;5.50;99.90;;;;;;5034329;28;20108;-74
2022/02/19 03:49:33;;;;;;;0.55;0.55;;;5.50;99.90;;;;;;5033334;28;20607;-73
2022/02/19 03:51:59;;;;;;;0.17;0.17;;;5.40;99.90;;;;;;5034500;28;20026;-73
2022/02/19 03:54:25;;;;;;;0.00;0.00;;;5.30;99.90;;;;;;5033697;28;20026;-73
2022/02/19 03:56:53;;;;;;;0.40;0.40;;;5.20;99.90;;;;;;5034090;28;20029;-73
2022/02/19 03:59:19;;;;;;;0.30;0.30;;;5.10;99.90;;;;;;5033865;28;20051;-73
2022/02/19 04:01:45;;;;;;;0.17;0.17;;;5.10;99.90;;;;;;5034375;28;20029;-73
2022/02/19 04:04:11;;;;;;;0.10;0.10;;;5.20;99.90;;;;;;5033268;28;20112;-73
2022/02/19 04:06:37;;;;;;;0.20;0.20;;;5.20;99.90;;;;;;5034077;28;20432;-73
2022/02/19 04:09:04;;;;;;;1.45;0.52;;;5.30;99.90;;;;;;5033217;28;20067;-73
2022/02/19 04:11:30;;;;;;;0.00;0.00;;;5.30;99.90;;;;;;5033437;28;20392;-73
2022/02/19 04:13:55;;;;;;;0.00;0.00;;;5.40;99.90;;;;;;5033741;28;20018;-72
2022/02/19 04:16:24;;;;;;;0.30;0.30;;;5.40;99.90;;;;;;5033448;28;20026;-73
2022/02/19 04:18:50;;;;;;;0.20;0.20;;;5.30;99.90;;;;;;5033399;28;20033;-73
2022/02/19 04:21:15;;;;;;;0.75;0.43;;;5.40;99.90;;;;;;5033788;28;20095;-73
2022/02/19 04:23:44;;;;;;;0.03;0.03;;;5.40;99.90;;;;;;5032944;28;20155;-73
2022/02/19 04:26:09;;;;;;;0.00;0.00;;;5.50;99.90;;;;;;5033727;28;20400;-73
2022/02/19 04:28:35;;;;;;;0.00;0.00;;;5.50;99.90;;;;;;5032203;28;20033;-73
2022/02/19 04:31:01;;;;;;;0.45;0.45;;;5.40;99.90;;;;;;5032231;28;20021;-73
2022/02/19 04:33:26;;;;;;;0.10;0.10;;;5.30;99.90;;;;;;5032211;28;20025;-73
2022/02/19 04:35:55;;;;;;;0.32;0.32;;;5.20;99.90;;;;;;5015306;28;20160;-73
2022/02/19 04:38:23;;;;;;;0.00;0.00;;;5.10;99.90;;;;;;5031879;28;20179;-74
2022/02/19 04:40:49;;;;;;;8.60;2.63;;;5.10;99.90;;;;;;5033468;28;20034;-73
2022/02/19 04:43:14;;;;;;;0.10;0.10;;;5.30;99.90;;;;;;5032737;28;20052;-73
2022/02/19 04:45:40;;;;;;;0.10;0.10;;;5.30;99.90;;;;;;5033054;28;20055;-73
2022/02/19 04:48:05;;;;;;;0.00;0.00;;;5.30;99.90;;;;;;5032990;28;20060;-73
2022/02/19 04:50:31;;;;;;;0.70;0.70;;;5.20;99.90;;;;;;5033056;28;20030;-73
2022/02/19 04:52:57;;;;;;;1.08;1.02;;;5.20;99.90;;;;;;5033006;28;20024;-74
2022/02/19 04:55:23;;;;;;;0.80;0.80;;;5.20;99.90;;;;;;5032803;28;20049;-74
2022/02/19 04:57:49;;;;;;;0.00;0.00;;;5.30;99.90;;;;;;5031782;28;20021;-73
2022/02/19 05:00:16;;;;;;;0.00;0.00;;;5.30;99.90;;;;;;5032334;28;20079;-73
2022/02/19 05:02:42;;;;;;;1.55;1.10;;;5.20;99.90;;;;;;5032925;28;20048;-73
2022/02/19 05:05:08;;;;;;;0.05;0.05;;;5.30;99.90;;;;;;5033037;28;20417;-74
2022/02/19 05:07:35;;;;;;;3.13;1.75;;;5.30;99.90;;;;;;5031532;28;20198;-74
2022/02/19 05:10:02;;;;;;;5.22;1.00;;;5.30;99.90;;;;;;5032595;28;20025;-73
2022/02/19 05:12:27;;;;;;;0.00;0.00;;;5.30;99.90;;;;;;5032885;28;20476;-73
2022/02/19 05:14:53;;;;;;;6.35;0.65;;;5.40;99.90;;;;;;5033146;28;20033;-73
2022/02/19 05:17:19;;;;;;;0.00;0.00;;;5.40;99.90;;;;;;5032276;28;20028;-73
2022/02/19 05:19:44;;;;;;;0.03;0.03;;;5.50;99.90;;;;;;5032636;28;20048;-74
2022/02/19 05:22:10;;;;;;;0.47;0.47;;;5.50;99.90;;;;;;5032850;28;20029;-73
2022/02/19 05:24:35;;;;;;;0.38;0.38;;;5.50;99.90;;;;;;5032583;28;20025;-74
2022/02/19 05:27:01;;;;;;;0.00;0.00;;;5.50;99.90;;;;;;5031582;28;20022;-73
2022/02/19 05:29:27;;;;;;;0.32;0.32;;;5.60;99.90;;;;;;5032772;28;20045;-73
2022/02/19 05:31:53;;;;;;;0.38;0.38;;;5.50;99.90;;;;;;5032684;28;20516;-73
2022/02/19 05:34:19;;;;;;;0.28;0.22;;;5.50;99.90;;;;;;5032169;28;20026;-73
2022/02/19 05:36:44;;;;;;;0.20;0.20;;;5.40;99.90;;;;;;5032724;28;20537;-73
2022/02/19 05:39:10;;;;;;;1.00;0.65;;;5.30;99.90;;;;;;5033287;28;20030;-73
2022/02/19 05:41:36;;;;;;;5.07;2.28;;;5.20;99.90;;;;;;5035360;28;20043;-73
2022/02/19 05:44:04;;;;;;;0.60;0.60;;;5.20;99.90;;;;;;5036029;28;20069;-74
2022/02/19 05:46:31;;;;;;;0.95;0.73;;;5.30;99.90;;;;;;5036665;28;20488;-73
2022/02/19 05:48:57;;;;;;;4.30;1.02;;;5.30;99.90;;;;;;5035008;28;20033;-73
2022/02/19 05:51:23;;;;;;;0.00;0.00;;;5.40;99.90;;;;;;5036098;28;20028;-73
2022/02/19 05:53:49;;;;;;;0.03;0.03;;;5.40;99.90;;;;;;5036112;28;20473;-73
2022/02/19 05:56:14;;;;;;;0.30;0.30;;;5.40;99.90;;;;;;5036460;28;20018;-74
2022/02/19 05:58:42;;;;;;;0.47;0.47;;;5.40;99.90;;;;;;5036040;28;20068;-74
2022/02/19 06:01:08;;;;;;;0.00;0.00;;;5.30;99.90;;;;;;5036113;28;20028;-73
2022/02/19 06:03:34;;;;;;;0.00;0.00;;;5.30;99.90;;;;;;5036101;28;20033;-73
2022/02/19 06:05:59;;;;;;;0.00;0.00;;;5.30;99.90;;;;;;5036090;28;20044;-73
2022/02/19 06:08:25;;;;;;;0.00;0.00;;;5.30;99.90;;;;;;5035530;28;20116;-73
2022/02/19 06:10:51;;;;;;;0.93;0.75;;;5.20;99.90;;;;;;5035304;28;20032;-74
2022/02/19 06:13:17;;;;;;;0.75;0.45;;;5.20;99.90;;;;;;5036053;28;20022;-73
2022/02/19 06:15:43;;;;;;;36.10;2.58;;;5.00;99.90;;;;;;5035845;28;20102;-73
2022/02/19 06:18:08;;;;;;;0.80;0.80;;;4.90;99.90;;;;;;5035462;28;20480;-74
2022/02/19 06:20:34;;;;;;;0.05;0.05;;;4.80;99.90;;;;;;5035975;28;20033;-74
2022/02/19 06:23:00;;;;;;;0.30;0.30;;;4.70;99.90;;;;;;5035969;28;20057;-73
2022/02/19 06:25:26;;;;;;;0.00;0.00;;;4.60;99.90;;;;;;5036272;28;20108;-73
2022/02/19 06:27:52;;;;;;;0.00;0.00;;;4.70;99.90;;;;;;5036166;28;20026;-74
2022/02/19 06:30:18;;;;;;;0.00;0.00;;;4.60;99.90;;;;;;5035704;28;20467;-74
2022/02/19 06:32:43;;;;;;;5.03;0.85;;;4.70;99.90;;;;;;5035716;28;20029;-73
2022/02/19 06:35:10;;;;;;;0.00;0.00;;;4.70;99.90;;;;;;5035540;28;20441;-73
2022/02/19 06:37:44;;;;;;;0.00;0.00;;;4.80;99.90;;;;;;5028291;28;20071;-74
2022/02/19 06:40:12;;;;;;;0.10;0.10;;;4.90;99.90;;;;;;5035651;28;20034;-73
2022/02/19 06:42:39;;;;;;;1.13;1.08;;;5.00;99.90;;;;;;5034832;28;20045;-73
2022/02/19 06:45:06;;;;;;;0.00;0.00;;;5.10;99.90;;;;;;5035339;28;20091;-73
2022/02/19 06:47:32;;;;;;;0.00;0.00;;;5.10;99.90;;;;;;5035312;28;20485;-74
2022/02/19 06:50:00;;;;;;;0.05;0.05;;;5.00;99.90;;;;;;5034217;28;20488;-73
2022/02/19 06:52:29;;;;;;;0.10;0.10;;;4.90;99.90;;;;;;5034804;28;20155;-74
2022/02/19 06:54:55;;;;;;;2.28;1.20;;;4.80;99.90;;;;;;5034883;28;20495;-73
2022/02/19 06:57:21;;;;;;;0.30;0.30;;;4.80;99.90;;;;;;5035344;28;20021;-74
2022/02/19 06:59:49;;;;;;;0.05;0.05;;;4.70;99.90;;;;;;5033930;28;20025;-73
2022/02/19 07:02:16;;;;;;;1.83;1.10;;;4.50;99.90;;;;;;5035509;28;20111;-73
2022/02/19 07:04:41;;;;;;;3.53;1.40;;;4.40;99.90;;;;;;5035085;28;20022;-74
2022/02/19 07:07:07;;;;;;;0.00;0.00;;;4.30;99.90;;;;;;5035134;28;20040;-73
2022/02/19 07:09:33;;;;;;;3.50;0.90;;;4.30;99.90;;;;;;5033987;28;20029;-73
2022/02/19 07:11:58;;;;;;;0.00;0.00;;;4.20;99.90;;;;;;5034343;28;20025;-73
2022/02/19 07:14:25;;;;;;;0.25;0.25;;;4.20;99.90;;;;;;5034931;28;20052;-73
2022/02/19 07:16:50;;;;;;;0.00;0.00;;;4.20;99.90;;;;;;5034327;28;20030;-73
2022/02/19 07:19:19;;;;;;;3.45;1.55;;;4.30;99.90;;;;;;5034057;28;20148;-73
2022/02/19 07:21:44;;;;;;;0.00;0.00;;;4.30;99.90;;;;;;5035090;28;20036;-73
2022/02/19 07:24:11;;;;;;;0.00;0.00;;;4.30;99.90;;;;;;5034666;28;20404;-73
2022/02/19 07:26:37;;;;;;;0.00;0.00;;;4.30;99.90;;;;;;5035193;28;20038;-73
2022/02/19 07:29:03;;;;;;;0.00;0.00;;;4.20;99.90;;;;;;5033389;28;20091;-73
2022/02/19 07:31:29;;;;;;;0.00;0.00;;;4.10;99.90;;;;;;5033204;28;20133;-73
2022/02/19 07:33:54;;;;;;;0.35;0.35;;;4.10;99.90;;;;;;5034553;28;20034;-72
2022/02/19 07:36:20;;;;;;;1.35;0.90;;;4.20;99.90;;;;;;5027364;28;20037;-73
2022/02/19 07:38:46;;;;;;;0.17;0.17;;;4.30;99.90;;;;;;5034334;28;20028;-73
2022/02/19 07:41:11;;;;;;;1.75;0.90;;;4.40;99.90;;;;;;5034512;28;20052;-74
2022/02/19 07:43:37;;;;;;;0.00;0.00;;;4.40;99.90;;;;;;5032461;28;20060;-73
2022/02/19 07:46:03;;;;;;;0.10;0.10;;;4.40;99.90;;;;;;5032770;28;20029;-73
2022/02/19 07:48:29;;;;;;;0.20;0.20;;;4.50;99.90;;;;;;5034026;28;20052;-73
2022/02/19 07:59:06;;;;;;;0.40;0.40;;;4.90;99.90;;;;;;5033983;28;20032;-73
2022/02/19 08:01:32;;;;;;;2.10;0.90;;;5.00;99.90;;;;;;5033621;28;20033;-73
2022/02/19 08:03:58;;;;;;;0.50;0.50;;;5.20;99.90;;;;;;5033937;28;20527;-73
2022/02/19 08:06:23;;;;;;;0.20;0.20;;;5.40;99.90;;;;;;5032818;28;20465;-74
2022/02/19 08:08:49;;;;;;;0.50;0.45;;;5.60;99.90;;;;;;5033606;28;20120;-74
2022/02/19 08:11:15;;;;;;;4.50;1.73;;;5.70;99.90;;;;;;5033709;28;20096;-74
2022/02/19 08:13:41;;;;;;;2.47;1.42;;;6.00;99.90;;;;;;5033376;28;20079;-74
2022/02/19 08:16:10;;;;;;;0.80;0.73;;;6.90;99.90;;;;;;5033452;28;20089;-74
2022/02/19 08:18:36;;;;;;;3.17;1.30;;;8.10;99.90;;;;;;5032219;28;20116;-73
2022/02/19 08:21:03;;;;;;;3.55;1.92;;;9.40;99.90;;;;;;5033962;28;20026;-72
2022/02/19 08:23:29;;;;;;;0.20;0.20;;;10.40;99.90;;;;;;5033429;28;20029;-73
2022/02/19 08:25:55;;;;;;;13.30;0.73;;;11.30;99.90;;;;;;5033761;28;20036;-73
2022/02/19 08:28:21;;;;;;;11.52;1.02;;;11.60;99.90;;;;;;5033549;28;20116;-73
2022/02/19 08:30:49;;;;;;;0.25;0.15;;;11.80;99.90;;;;;;5031488;28;20105;-72
2022/02/19 08:33:14;;;;;;;0.15;0.15;;;11.30;99.90;;;;;;5033023;28;20048;-72
2022/02/19 08:35:41;;;;;;;2.63;0.55;;;10.00;99.90;;;;;;5033323;28;20025;-72
2022/02/19 08:38:07;;;;;;;0.43;0.03;;;9.20;99.90;;;;;;5033074;28;20029;-72
2022/02/19 08:40:34;;;;;;;0.00;0.00;;;8.60;99.90;;;;;;5033221;28;20018;-71
2022/02/19 08:43:00;;;;;;;0.68;0.68;;;8.30;99.90;;;;;;5033190;28;20053;-72
2022/02/19 08:45:26;;;;;;;3.08;1.40;;;8.20;99.90;;;;;;5032615;28;20045;-72
2022/02/19 08:48:01;;;;;;;0.00;0.00;;;8.20;99.90;;;;;;5032936;28;20025;-72
2022/02/19 08:50:28;;;;;;;3.10;0.77;;;8.60;99.90;;;;;;5033360;28;20056;-72
2022/02/19 08:52:54;;;;;;;0.80;0.20;;;9.40;99.90;;;;;;5032941;28;20472;-72
2022/02/19 08:55:20;;;;;;;0.60;0.52;;;10.50;99.90;;;;;;5032981;28;20117;-72
2022/02/19 08:57:45;;;;;;;0.32;0.32;;;10.90;99.90;;;;;;5033180;28;20030;-72
2022/02/19 09:00:13;;;;;;;0.10;0.10;;;10.70;99.90;;;;;;5033021;28;20151;-72
2022/02/19 09:02:39;;;;;;;1.23;0.10;;;10.20;99.90;;;;;;5032902;28;20025;-72
2022/02/19 09:05:07;;;;;;;0.20;0.20;;;9.80;99.90;;;;;;5031164;28;20041;-72
2022/02/19 09:07:37;;;;;;;0.30;0.30;;;9.60;99.90;;;;;;5032787;28;20459;-72
2022/02/19 09:10:07;;;;;;;0.05;0.05;;;10.50;99.90;;;;;;5032744;28;20117;-72
2022/02/19 09:12:33;;;;;;;0.47;0.10;;;11.00;99.90;;;;;;5032282;28;20022;-72
2022/02/19 09:14:59;;;;;;;0.10;0.10;;;10.60;99.90;;;;;;5032088;28;20450;-72
2022/02/19 09:17:25;;;;;;;0.45;0.45;;;10.20;99.90;;;;;;5032198;28;20025;-72
2022/02/19 09:19:50;;;;;;;0.00;0.00;;;9.80;99.90;;;;;;5031495;28;20025;-71
2022/02/19 09:22:16;;;;;;;0.47;0.47;;;9.40;99.90;;;;;;5033017;28;20025;-72
2022/02/19 09:24:42;;;;;;;0.00;0.00;;;9.10;99.90;;;;;;5032502;28;20061;-73
2022/02/19 09:27:07;;;;;;;3.00;1.65;;;9.00;99.90;;;;;;5032616;28;20054;-74
2022/02/19 09:29:33;;;;;;;6.88;1.48;;;8.90;99.90;;;;;;5032129;28;20408;-73
2022/02/19 09:31:59;;;;;;;0.00;0.00;;;8.90;99.90;;;;;;5032761;28;20018;-73
2022/02/19 09:34:24;;;;;;;0.00;0.00;;;9.00;99.90;;;;;;5032871;28;20025;-74
2022/02/19 09:36:51;;;;;;;0.00;0.00;;;9.00;99.90;;;;;;5032507;28;20096;-74
2022/02/19 09:39:17;;;;;;;0.00;0.00;;;9.00;99.90;;;;;;5031465;28;20028;-74
2022/02/19 09:41:44;;;;;;;0.10;0.10;;;8.90;99.90;;;;;;5032453;28;20029;-74
2022/02/19 09:44:10;;;;;;;0.00;0.00;;;8.90;99.90;;;;;;5032316;28;20049;-74
2022/02/19 09:46:35;;;;;;;0.00;0.00;;;9.40;99.90;;;;;;5032070;28;20545;-74
2022/02/19 09:49:06;;;;;;;0.30;0.10;;;10.80;99.90;;;;;;5032274;28;20030;-74
2022/02/19 09:51:33;;;;;;;9.75;0.22;;;12.50;99.90;;;;;;5032402;28;20022;-74
2022/02/19 09:53:59;;;;;;;0.43;0.43;;;13.40;99.90;;;;;;5030888;28;20022;-74
2022/02/19 09:56:28;;;;;;;32.35;1.30;;;13.70;99.90;;;;;;5032429;28;20032;-74
2022/02/19 09:58:55;;;;;;;0.22;0.22;;;13.40;99.90;;;;;;5032766;28;20026;-74
2022/02/19 10:01:21;;;;;;;0.00;0.00;;;12.80;99.90;;;;;;5032780;28;20021;-74
2022/02/19 10:03:56;;;;;;;0.90;0.55;;;11.90;99.90;;;;;;5032490;28;20489;-73
2022/02/19 10:06:27;;;;;;;0.00;0.00;;;11.20;99.90;;;;;;5032287;28;20556;-73
2022/02/19 10:09:11;;;;;;;0.00;0.00;;;10.90;99.90;;;;;;5032191;28;20029;-74
2022/02/19 10:11:38;;;;;;;11.40;0.35;;;11.00;99.90;;;;;;5031609;28;20481;-74
2022/02/19 10:14:25;;;;;;;0.00;0.00;;;11.10;99.90;;;;;;5031901;28;20034;-74
2022/02/19 10:17:03;;;;;;;0.22;0.22;;;11.10;99.90;;;;;;5031720;28;20404;-74
2022/02/19 10:19:29;;;;;;;0.00;0.00;;;11.20;99.90;;;;;;5032205;28;20057;-74
2022/02/19 10:22:10;;;;;;;0.00;0.00;;;11.20;99.90;;;;;;5032303;28;20503;-74
2022/02/19 10:24:37;;;;;;;0.73;0.73;;;11.00;99.90;;;;;;5032136;28;20412;-74
2022/02/19 10:27:03;;;;;;;0.05;0.05;;;11.00;99.90;;;;;;5035994;28;20515;-74
2022/02/19 10:29:31;;;;;;;0.45;0.20;;;10.90;99.90;;;;;;5035877;28;20026;-73
2022/02/19 10:31:57;;;;;;;0.00;0.00;;;10.70;99.90;;;;;;5035596;28;20473;-73
2022/02/19 10:34:23;;;;;;;0.20;0.20;;;10.70;99.90;;;;;;5035585;28;20022;-73
2022/02/19 10:36:51;;;;;;;0.00;0.00;;;10.90;99.90;;;;;;5032400;28;20032;-73
2022/02/19 10:39:27;;;;;;;0.20;0.13;;;10.80;99.90;;;;;;5015663;28;20108;-73
2022/02/19 10:41:56;;;;;;;0.00;0.00;;;10.90;99.90;;;;;;5015828;28;20501;-73
2022/02/19 10:44:27;;;;;;;0.00;0.00;;;11.00;99.90;;;;;;5015597;28;20117;-73
2022/02/19 10:46:55;;;;;;;0.10;0.10;;;11.10;99.90;;;;;;5015233;28;20125;-74
2022/02/19 10:49:23;;;;;;;0.00;0.00;;;11.50;99.90;;;;;;5029522;28;20018;-74
2022/02/19 10:51:49;;;;;;;0.03;0.03;;;11.70;99.90;;;;;;5033980;28;20096;-73
2022/02/19 10:54:20;;;;;;;0.30;0.30;;;11.70;99.90;;;;;;5034829;28;20041;-74
2022/02/19 10:56:45;;;;;;;0.00;0.00;;;11.80;99.90;;;;;;5035386;28;20025;-73
2022/02/19 10:59:15;;;;;;;0.63;0.52;;;11.60;99.90;;;;;;5035311;28;20444;-73
2022/02/19 11:01:51;;;;;;;0.70;0.25;;;11.50;99.90;;;;;;5034912;28;20037;-74
2022/02/19 11:04:20;;;;;;;0.28;0.28;;;11.60;99.90;;;;;;5033751;28;20523;-72
2022/02/19 11:06:46;;;;;;;12.25;0.75;;;11.60;99.90;;;;;;5035296;28;20052;-74
2022/02/19 11:09:13;;;;;;;1.17;0.30;;;11.50;99.90;;;;;;5034330;28;20022;-72
2022/02/19 11:11:44;;;;;;;0.85;0.38;;;11.50;99.90;;;;;;5034901;28;20026;-72
2022/02/19 11:14:14;;;;;;;0.00;0.00;;;11.40;99.90;;;;;;5035125;28;20543;-73
2022/02/19 11:16:40;;;;;;;0.00;0.00;;;11.40;99.90;;;;;;5034470;28;20029;-73
2022/02/19 11:19:07;;;;;;;0.15;0.15;;;11.40;99.90;;;;;;5034670;28;20022;-72
2022/02/19 11:21:35;;;;;;;0.30;0.30;;;11.20;99.90;;;;;;5034852;28;20052;-74
2022/02/19 11:24:05;;;;;;;0.00;0.00;;;11.30;99.90;;;;;;5033825;28;20018;-73
2022/02/19 11:26:31;;;;;;;1.70;0.88;;;11.50;99.90;;;;;;5033589;28;20037;-72
2022/02/19 11:29:04;;;;;;;0.17;0.17;;;11.50;99.90;;;;;;5034455;28;20488;-73
2022/02/19 11:31:33;;;;;;;0.00;0.00;;;11.40;99.90;;;;;;5034634;28;20022;-72
2022/02/19 11:34:02;;;;;;;0.00;0.00;;;11.30;99.90;;;;;;5034400;28;20416;-73
2022/02/19 11:36:29;;;;;;;0.00;0.00;;;11.20;99.90;;;;;;5033991;28;20029;-72
2022/02/19 11:38:56;;;;;;;0.00;0.00;;;11.20;99.90;;;;;;5029336;28;20057;-73
2022/02/19 11:41:40;;;;;;;0.80;0.57;;;11.20;99.90;;;;;;5014673;28;20037;-73
2022/02/19 11:44:24;;;;;;;0.00;0.00;;;11.10;99.90;;;;;;5013776;28;20125;-73
2022/02/19 11:46:51;;;;;;;0.85;0.20;;;11.10;99.90;;;;;;5014122;28;20030;-73
2022/02/19 11:49:18;;;;;;;0.00;0.00;;;11.10;99.90;;;;;;5028616;28;20369;-72
2022/02/19 11:51:44;;;;;;;0.00;0.00;;;11.20;99.90;;;;;;5034013;28;20034;-74
2022/02/19 11:54:11;;;;;;;0.10;0.10;;;11.50;99.90;;;;;;5033393;28;20501;-74
2022/02/19 11:56:39;;;;;;;0.28;0.28;;;11.50;99.90;;;;;;5034173;28;20080;-73
2022/02/19 11:59:12;;;;;;;0.10;0.10;;;11.30;99.90;;;;;;5033473;28;20044;-74
2022/02/19 12:01:40;;;;;;;0.10;0.08;;;11.30;99.90;;;;;;5032734;28;20079;-73
2022/02/19 12:04:19;;;;;;;0.45;0.40;;;11.20;99.90;;;;;;5032881;28;20091;-74
2022/02/19 12:07:11;;;;;;;0.52;0.15;;;11.50;99.90;;;;;;5033970;28;20112;-74
2022/02/19 12:10:01;;;;;;;0.28;0.25;;;11.40;99.90;;;;;;5033414;28;20068;-72
2022/02/19 12:12:27;;;;;;;0.05;0.05;;;11.50;99.90;;;;;;5033658;28;20032;-73
2022/02/19 12:14:57;;;;;;;0.00;0.00;;;11.50;99.90;;;;;;5033862;28;20389;-73
2022/02/19 12:17:25;;;;;;;0.00;0.00;;;11.40;99.90;;;;;;5033136;28;20024;-72
2022/02/19 12:20:02;;;;;;;0.40;0.40;;;11.30;99.90;;;;;;5033548;28;20103;-73
2022/02/19 12:22:37;;;;;;;0.52;0.20;;;11.20;99.90;;;;;;5034009;28;20022;-72
2022/02/19 12:25:07;;;;;;;0.85;0.35;;;11.40;99.90;;;;;;5034062;28;20384;-73
2022/02/19 12:27:34;;;;;;;0.77;0.10;;;11.30;99.90;;;;;;5033695;28;20091;-74
2022/02/19 12:30:22;;;;;;;0.00;0.00;;;11.30;99.90;;;;;;5033543;28;20108;-72
2022/02/19 12:32:58;;;;;;;0.00;0.00;;;11.20;99.90;;;;;;5032168;28;20057;-74
2022/02/19 12:35:34;;;;;;;0.00;0.00;;;11.30;99.90;;;;;;5032944;28;20014;-73
2022/02/19 12:38:02;;;;;;;0.00;0.00;;;11.40;99.90;;;;;;5032926;28;20033;-74
2022/02/19 12:40:29;;;;;;;7.53;2.55;;;11.50;99.90;;;;;;5033436;28;20092;-73
2022/02/19 12:42:55;;;;;;;0.00;0.00;;;11.70;99.90;;;;;;5033234;28;20080;-72
2022/02/19 12:45:21;;;;;;;0.08;0.08;;;11.60;99.90;;;;;;5033374;28;20033;-73
2022/02/19 12:47:47;;;;;;;0.57;0.55;;;11.70;99.90;;;;;;5032229;28;20400;-74
2022/02/19 12:50:16;;;;;;;0.00;0.00;;;11.70;99.90;;;;;;5032135;28;20414;-73
2022/02/19 12:52:46;;;;;;;8.15;1.27;;;11.70;99.90;;;;;;5032476;28;20032;-72
2022/02/19 12:55:17;;;;;;;0.55;0.25;;;11.50;99.90;;;;;;5032743;28;20075;-73
2022/02/19 12:57:44;;;;;;;0.00;0.00;;;11.60;99.90;;;;;;5033105;28;20540;-73
2022/02/19 13:00:10;;;;;;;0.00;0.00;;;11.70;99.90;;;;;;5032947;28;20029;-74